createdAt,value
2023-01-02T00:03:45.232Z,0
2023-01-02T00:08:44.833Z,0
2023-01-02T00:13:43.181Z,0
2023-01-02T00:18:43.417Z,0
2023-01-02T00:23:44.273Z,0
2023-01-02T00:28:40.804Z,0
2023-01-02T00:33:41.135Z,0
2023-01-02T00:38:41.335Z,0
2023-01-02T00:43:40.718Z,0
2023-01-02T00:48:37.680Z,0
2023-01-02T00:53:37.067Z,0
2023-01-02T00:58:33.083Z,0
2023-01-02T01:03:31.695Z,0
2023-01-02T01:08:31.528Z,0
2023-01-02T01:13:30.200Z,0
2023-01-02T01:18:30.520Z,0
2023-01-02T01:23:29.729Z,0
2023-01-02T01:28:31.627Z,0
2023-01-02T01:33:27.589Z,0
2023-01-02T01:38:27.469Z,0
2023-01-02T01:43:26.713Z,0
2023-01-02T01:48:25.865Z,0
2023-01-02T01:53:25.515Z,0
2023-01-02T01:58:25.390Z,0
2023-01-02T01:59:47.090Z,0
2023-01-02T02:04:44.640Z,0
2023-01-02T02:09:45.807Z,0
2023-01-02T02:14:45.094Z,0
2023-01-02T02:19:44.688Z,0
2023-01-02T02:24:44.020Z,0
2023-01-02T02:29:43.628Z,0
2023-01-02T02:39:42.352Z,0
2023-01-02T02:44:43.223Z,0
2023-01-02T02:49:39.345Z,0
2023-01-02T02:54:39.333Z,0
2023-01-02T02:58:49.771Z,0
2023-01-02T03:03:49.916Z,0
2023-01-02T03:08:47.650Z,0
2023-01-02T03:13:47.890Z,0
2023-01-02T03:18:47.458Z,0
2023-01-02T03:23:48.972Z,0
2023-01-02T03:28:46.004Z,0
2023-01-02T03:33:46.602Z,0
2023-01-02T03:38:44.816Z,0
2023-01-02T03:43:44.963Z,0
2023-01-02T03:48:45.098Z,0
2023-01-02T03:53:44.353Z,0
2023-01-02T03:58:43.843Z,0
2023-01-02T04:03:43.462Z,0
2023-01-02T04:08:43.348Z,0
2023-01-02T04:13:42.699Z,0
2023-01-02T04:18:49.546Z,0
2023-01-02T04:23:39.968Z,0
2023-01-02T04:28:40.297Z,0
2023-01-02T04:33:40.773Z,0
2023-01-02T04:38:40.303Z,0
2023-01-02T04:43:39.049Z,0
2023-01-02T04:48:38.958Z,0
2023-01-02T04:53:38.476Z,0
2023-01-02T04:58:39.623Z,0
2023-01-02T05:00:00.626Z,0
2023-01-02T05:05:00.348Z,0
2023-01-02T05:09:59.353Z,0
2023-01-02T05:14:58.730Z,0
2023-01-02T05:19:58.473Z,0
2023-01-02T05:24:57.456Z,0
2023-01-02T05:29:57.075Z,0
2023-01-02T05:34:55.082Z,0
2023-01-02T05:39:54.340Z,0
2023-01-02T05:44:54.666Z,0
2023-01-02T05:49:54.285Z,0
2023-01-02T05:54:53.642Z,0
2023-01-02T05:59:28.360Z,0
2023-01-02T06:04:28.620Z,0
2023-01-02T06:09:16.710Z,0
2023-01-02T06:14:16.575Z,0
2023-01-02T06:19:16.120Z,0
2023-01-02T06:24:16.053Z,0
2023-01-02T06:29:17.151Z,0
2023-01-02T06:34:13.327Z,0
2023-01-02T06:39:13.593Z,0
2023-01-02T06:44:12.589Z,0
2023-01-02T06:49:12.906Z,0
2023-01-02T06:54:09.854Z,0
2023-01-02T06:58:57.774Z,0
2023-01-02T07:03:57.610Z,0
2023-01-02T07:08:58.329Z,0
2023-01-02T07:13:54.790Z,0
2023-01-02T07:18:55.148Z,0
2023-01-02T07:23:54.222Z,0
2023-01-02T07:28:54.930Z,0
2023-01-02T07:33:52.354Z,0
2023-01-02T07:38:52.717Z,0
2023-01-02T07:43:52.129Z,0
2023-01-02T07:48:53.149Z,0.01
2023-01-02T07:53:49.172Z,0.01
2023-01-02T07:58:49.281Z,0.02
2023-01-02T08:03:48.993Z,0.02
2023-01-02T08:08:48.543Z,0.02
2023-01-02T08:13:46.000Z,0.03
2023-01-02T08:18:46.194Z,0.03
2023-01-02T08:23:45.770Z,0.03
2023-01-02T08:28:45.601Z,0.04
2023-01-02T08:33:45.501Z,0.04
2023-01-02T08:38:44.856Z,0.04
2023-01-02T08:43:44.659Z,0.05
2023-01-02T08:48:44.440Z,0.06
2023-01-02T08:53:44.336Z,0.06
2023-01-02T08:58:53.543Z,0.06
2023-01-02T09:00:15.044Z,0.06
2023-01-02T09:05:03.876Z,0.07
2023-01-02T09:10:04.082Z,0.07
2023-01-02T09:15:03.039Z,0.08
2023-01-02T09:20:02.906Z,0.08
2023-01-02T09:25:03.334Z,0.09
2023-01-02T09:30:01.226Z,0.1
2023-01-02T09:35:01.231Z,0.1
2023-01-02T09:40:00.846Z,0.1
2023-01-02T09:45:11.109Z,0.1
2023-01-02T09:49:58.019Z,0.11
2023-01-02T09:54:58.336Z,0.12
2023-01-02T09:58:59.689Z,0.12
2023-01-02T10:03:59.940Z,0.12
2023-01-02T10:08:57.096Z,0.13
2023-01-02T10:14:44.111Z,0.14
2023-01-02T10:18:58.187Z,0.13
2023-01-02T10:23:57.536Z,0.13
2023-01-02T10:28:56.706Z,0.13
2023-01-02T10:33:55.682Z,0.13
2023-01-02T10:38:56.742Z,0.14
2023-01-02T10:43:53.908Z,0.16
2023-01-02T10:48:55.677Z,0.17
2023-01-02T10:53:53.077Z,0.18
2023-01-02T10:58:53.569Z,0.17
2023-01-02T11:03:50.804Z,0.16
2023-01-02T11:08:51.102Z,0.19
2023-01-02T11:13:56.745Z,0.19
2023-01-02T11:18:51.797Z,0.21
2023-01-02T11:28:50.962Z,0.2
2023-01-02T11:33:51.193Z,0.2
2023-01-02T11:38:50.943Z,0.2
2023-01-02T11:43:51.965Z,0.19
2023-01-02T11:48:48.566Z,0.18
2023-01-02T11:53:47.965Z,0.21
2023-01-02T11:58:46.967Z,0.2
2023-01-02T12:03:47.734Z,0.18
2023-01-02T12:08:53.770Z,0.16
2023-01-02T12:13:44.049Z,0.14
2023-01-02T12:18:45.069Z,0.11
2023-01-02T12:23:40.992Z,0.13
2023-01-02T12:28:41.029Z,0.11
2023-01-02T12:33:40.030Z,0.1
2023-01-02T12:38:40.306Z,0.13
2023-01-02T12:43:37.612Z,0.1
2023-01-02T12:48:37.566Z,0.1
2023-01-02T12:53:37.210Z,0.1
2023-01-02T12:58:36.392Z,0.09
2023-01-02T12:59:58.432Z,0.08
2023-01-02T13:04:57.801Z,0.05
2023-01-02T13:09:57.375Z,0.05
2023-01-02T13:14:57.159Z,0.04
2023-01-02T13:19:57.685Z,0.04
2023-01-02T13:24:53.943Z,0.03
2023-01-02T13:29:54.500Z,0.03
2023-01-02T13:34:54.273Z,0.02
2023-01-02T13:39:53.434Z,0.02
2023-01-02T13:44:53.087Z,0.02
2023-01-02T13:49:53.204Z,0.02
2023-01-02T13:54:52.471Z,0.02
2023-01-02T13:59:50.049Z,0.02
2023-01-02T14:04:09.946Z,0.01
2023-01-02T14:09:09.122Z,0.02
2023-01-02T14:14:09.939Z,0.02
2023-01-02T14:19:05.791Z,0.02
2023-01-02T14:24:31.428Z,0.01
2023-01-02T14:29:05.117Z,0.02
2023-01-02T14:34:04.702Z,0.01
2023-01-02T14:39:02.061Z,0.01
2023-01-02T14:44:02.312Z,0
2023-01-02T14:49:27.219Z,0
2023-01-02T14:54:01.557Z,0
2023-01-02T14:58:48.749Z,0
2023-01-02T15:00:09.892Z,0
2023-01-02T15:05:09.116Z,0
2023-01-02T15:10:08.863Z,0
2023-01-02T15:15:06.147Z,0
2023-01-02T15:20:06.151Z,0
2023-01-02T15:25:05.545Z,0
2023-01-02T15:30:06.633Z,0
2023-01-02T15:35:04.921Z,0
2023-01-02T15:40:04.728Z,0
2023-01-02T15:45:04.291Z,0
2023-01-02T15:50:03.849Z,0
2023-01-02T15:55:03.124Z,0
2023-01-02T15:59:33.369Z,0
2023-01-02T16:04:33.703Z,0
2023-01-02T16:09:31.741Z,0
2023-01-02T16:15:15.360Z,0
2023-01-02T16:19:32.139Z,0
2023-01-02T16:24:31.262Z,0
2023-01-02T16:29:31.841Z,0
2023-01-02T16:34:29.395Z,0
2023-01-02T16:39:29.872Z,0
2023-01-02T16:44:29.708Z,0
2023-01-02T16:49:28.601Z,0
2023-01-02T16:54:28.971Z,0
2023-01-02T16:59:09.160Z,0
2023-01-02T17:04:09.111Z,0
2023-01-02T17:09:06.429Z,0
2023-01-02T17:14:06.438Z,0
2023-01-02T17:19:06.352Z,0
2023-01-02T17:24:05.024Z,0
2023-01-02T17:29:05.669Z,0
2023-01-02T17:34:04.836Z,0
2023-01-02T17:39:05.798Z,0
2023-01-02T17:44:06.523Z,0
2023-01-02T17:49:01.570Z,0
2023-01-02T17:54:01.872Z,0
2023-01-02T17:59:00.870Z,0
2023-01-02T18:04:00.747Z,0
2023-01-02T18:09:00.307Z,0
2023-01-02T18:14:00.242Z,0
2023-01-02T18:19:01.862Z,0
2023-01-02T18:23:58.259Z,0
2023-01-02T18:28:58.395Z,0
2023-01-02T18:33:56.563Z,0
2023-01-02T18:38:56.593Z,0
2023-01-02T18:43:53.946Z,0
2023-01-02T18:48:53.954Z,0
2023-01-02T18:53:53.752Z,0
2023-01-02T18:58:53.953Z,0
2023-01-02T19:03:52.062Z,0
2023-01-02T19:08:52.877Z,0
2023-01-02T19:14:00.837Z,0
2023-01-02T19:18:51.367Z,0
2023-01-02T19:23:51.272Z,0
2023-01-02T19:28:50.899Z,0
2023-01-02T19:33:50.572Z,0
2023-01-02T19:38:47.793Z,0
2023-01-02T19:43:47.095Z,0
2023-01-02T19:48:47.774Z,0
2023-01-02T19:53:47.543Z,0
2023-01-02T19:58:46.505Z,0
2023-01-02T20:03:45.934Z,0
2023-01-02T20:08:46.205Z,0
2023-01-02T20:13:46.116Z,0
2023-01-02T20:18:46.535Z,0
2023-01-02T20:23:43.162Z,0
2023-01-02T20:28:43.696Z,0
2023-01-02T20:33:42.559Z,0
2023-01-02T20:38:43.724Z,0
2023-01-02T20:43:40.587Z,0
2023-01-02T20:48:39.947Z,0
2023-01-02T20:53:40.153Z,0
2023-01-02T20:58:37.528Z,0
2023-01-02T21:03:37.903Z,0
2023-01-02T21:08:37.174Z,0
2023-01-02T21:13:36.701Z,0
2023-01-02T21:18:36.489Z,0
2023-01-02T21:23:36.258Z,0
2023-01-02T21:28:36.307Z,0
2023-01-02T21:33:35.445Z,0
2023-01-02T21:38:37.269Z,0
2023-01-02T21:43:33.352Z,0
2023-01-02T21:48:33.889Z,0
2023-01-02T21:53:32.605Z,0
2023-01-02T21:58:25.584Z,0
2023-01-02T22:03:34.007Z,0
2023-01-02T22:08:33.980Z,0
2023-01-02T22:13:34.166Z,0
2023-01-02T22:18:40.460Z,0
2023-01-02T22:23:32.902Z,0
2023-01-02T22:28:34.124Z,0
2023-01-02T22:33:32.110Z,0
2023-01-02T22:38:32.762Z,0
2023-01-02T22:43:34.015Z,0
2023-01-02T22:48:31.078Z,0
2023-01-02T22:53:30.665Z,0
2023-01-02T22:58:32.297Z,0
2023-01-02T22:59:52.702Z,0
2023-01-02T23:04:53.991Z,0
2023-01-02T23:09:52.293Z,0
2023-01-02T23:14:52.294Z,0
2023-01-02T23:19:49.249Z,0
2023-01-02T23:24:49.073Z,0
2023-01-02T23:29:48.111Z,0
2023-01-02T23:34:47.728Z,0
2023-01-02T23:39:47.070Z,0
2023-01-02T23:44:46.493Z,0
2023-01-02T23:49:46.434Z,0
2023-01-02T23:54:46.264Z,0
2023-01-02T23:59:17.337Z,0
